Time;durP1;ratioP1;P1;durP2;ratioP2;P2;SDS_P1;SDS_P2;PMS_P1;PMS_P2;Temp;Humidity;BMP_temperature;BMP_pressure;BME280_temperature;BME280_humidity;BME280_pressure;Samples;Min_cycle;Max_cycle;Signal;HPM_P1;HPM_P2
2023/05/07 00:00:23;;;;;;;;;;;13.10;99.90;;;;;;5052063;28;19925;-73
2023/05/07 00:02:48;;;;;;;;;;;13.00;99.90;;;;;;5050803;28;19974;-74
2023/05/07 00:05:14;;;;;;;;;;;13.00;99.90;;;;;;5040071;28;20308;-74
2023/05/07 00:07:40;;;;;;;;;;;13.00;99.90;;;;;;5029283;28;19925;-74
2023/05/07 00:10:06;;;;;;;;;;;13.00;99.90;;;;;;5031190;28;19925;-74
2023/05/07 00:12:33;;;;;;;;;;;13.00;99.90;;;;;;5044964;28;20511;-74
2023/05/07 00:15:00;;;;;;;;;;;13.00;99.90;;;;;;5052205;28;20344;-74
2023/05/07 00:17:25;;;;;;;;;;;13.00;99.90;;;;;;5055931;28;19925;-74
2023/05/07 00:19:51;;;;;;;;;;;12.90;99.90;;;;;;5054764;28;19932;-74
2023/05/07 00:22:17;;;;;;;;;;;12.90;99.90;;;;;;5054682;28;20023;-74
2023/05/07 00:24:42;;;;;;;;;;;12.90;99.90;;;;;;5055012;28;20334;-74
2023/05/07 00:27:08;;;;;;;;;;;12.90;99.90;;;;;;5054257;28;19983;-74
2023/05/07 00:29:34;;;;;;;;;;;12.90;99.90;;;;;;5055663;28;19967;-74
2023/05/07 00:31:59;;;;;;;;;;;12.90;99.90;;;;;;5054168;28;19925;-75
2023/05/07 00:34:25;;;;;;;;;;;12.90;99.90;;;;;;5054967;28;20363;-75
2023/05/07 00:36:50;;;;;;;;;;;12.90;99.90;;;;;;5054847;28;19925;-75
2023/05/07 00:39:16;;;;;;;;;;;12.90;99.90;;;;;;5054856;28;19925;-75
2023/05/07 00:41:41;;;;;;;;;;;12.90;99.90;;;;;;5055116;28;19925;-74
2023/05/07 00:44:07;;;;;;;;;;;12.90;99.90;;;;;;5054176;28;19921;-74
2023/05/07 00:46:32;;;;;;;;;;;12.90;99.90;;;;;;5054878;28;19924;-74
2023/05/07 00:48:59;;;;;;;;;;;12.80;99.90;;;;;;5054434;28;20326;-74
2023/05/07 00:51:26;;;;;;;;;;;12.80;99.90;;;;;;5055749;28;19931;-74
2023/05/07 00:53:52;;;;;;;;;;;12.80;99.90;;;;;;5055726;28;19932;-74
2023/05/07 00:56:17;;;;;;;;;;;12.80;99.90;;;;;;5053467;28;20300;-74
2023/05/07 00:58:43;;;;;;;;;;;12.80;99.90;;;;;;5055472;28;20376;-75
2023/05/07 01:01:09;;;;;;;;;;;12.90;99.90;;;;;;5055425;28;19943;-74
2023/05/07 01:03:35;;;;;;;;;;;12.80;99.90;;;;;;5054596;28;19925;-75
2023/05/07 01:06:01;;;;;;;;;;;12.80;99.90;;;;;;5055356;28;20331;-75
2023/05/07 01:08:29;;;;;;;;;;;12.80;99.90;;;;;;5054612;28;19934;-74
2023/05/07 01:10:55;;;;;;;;;;;12.80;99.90;;;;;;5054074;28;19924;-74
2023/05/07 01:13:21;;;;;;;;;;;12.80;99.90;;;;;;5053557;28;19956;-74
2023/05/07 01:15:46;;;;;;;;;;;12.80;99.90;;;;;;5055289;28;19967;-74
2023/05/07 01:18:12;;;;;;;;;;;12.70;99.90;;;;;;5054696;28;19971;-74
2023/05/07 01:20:38;;;;;;;;;;;12.70;99.90;;;;;;5055188;28;19971;-74
2023/05/07 01:23:04;;;;;;;;;;;12.70;99.90;;;;;;5054708;28;19925;-74
2023/05/07 01:25:30;;;;;;;;;;;12.70;99.90;;;;;;5054834;28;20376;-74
2023/05/07 01:27:56;;;;;;;;;;;13.30;99.90;;;;;;5053367;28;19951;-74
2023/05/07 01:30:22;;;;;;;;;;;12.70;99.90;;;;;;5053124;28;19925;-74
2023/05/07 01:32:53;;;;;;;;;;;12.70;99.90;;;;;;5054557;28;19932;-74
2023/05/07 01:35:20;;;;;;;;;;;12.70;99.90;;;;;;5055185;28;20072;-74
2023/05/07 01:37:46;;;;;;;;;;;12.60;99.90;;;;;;5054623;28;20015;-74
2023/05/07 01:40:12;;;;;;;;;;;12.60;99.90;;;;;;5052772;28;19932;-74
2023/05/07 01:42:38;;;;;;;;;;;12.60;99.90;;;;;;5054982;28;19925;-74
2023/05/07 01:45:03;;;;;;;;;;;12.60;99.90;;;;;;5052557;28;19925;-74
2023/05/07 01:47:29;;;;;;;;;;;12.60;99.90;;;;;;5054457;28;19933;-74
2023/05/07 01:49:55;;;;;;;;;;;12.60;99.90;;;;;;5034650;28;19932;-74
2023/05/07 01:52:20;;;;;;;;;;;12.60;99.90;;;;;;5034173;28;19929;-74
2023/05/07 01:54:46;;;;;;;;;;;12.60;99.90;;;;;;5045894;28;20373;-74
2023/05/07 01:57:11;;;;;;;;;;;12.50;99.90;;;;;;5054288;28;20366;-74
2023/05/07 01:59:37;;;;;;;;;;;12.60;99.90;;;;;;5053757;28;19931;-74
2023/05/07 02:02:02;;;;;;;;;;;12.60;99.90;;;;;;5051986;28;19935;-74
2023/05/07 02:04:28;;;;;;;;;;;12.50;99.90;;;;;;5053228;28;20373;-73
2023/05/07 02:06:53;;;;;;;;;;;12.50;99.90;;;;;;5052227;28;19929;-74
2023/05/07 02:09:19;;;;;;;;;;;12.50;99.90;;;;;;5052996;28;19925;-73
2023/05/07 02:11:45;;;;;;;;;;;12.50;99.90;;;;;;5053342;28;19927;-74
2023/05/07 02:14:10;;;;;;;;;;;12.50;99.90;;;;;;5051990;28;20023;-74
2023/05/07 02:16:36;;;;;;;;;;;12.50;99.90;;;;;;5054098;28;19931;-74
2023/05/07 02:19:02;;;;;;;;;;;12.50;99.90;;;;;;5052321;28;19924;-73
2023/05/07 02:21:27;;;;;;;;;;;12.50;99.90;;;;;;5052378;28;20379;-73
2023/05/07 02:23:53;;;;;;;;;;;12.40;99.90;;;;;;5053944;28;20333;-73
2023/05/07 02:26:18;;;;;;;;;;;12.50;99.90;;;;;;5053581;28;19929;-73
2023/05/07 02:28:44;;;;;;;;;;;12.40;99.90;;;;;;5052054;28;20280;-73
2023/05/07 02:31:09;;;;;;;;;;;12.50;99.90;;;;;;5053540;28;19931;-73
2023/05/07 02:33:36;;;;;;;;;;;12.60;99.90;;;;;;5052338;28;19925;-74
2023/05/07 02:36:08;;;;;;;;;;;12.30;99.90;;;;;;5052775;28;19929;-74
2023/05/07 02:38:34;;;;;;;;;;;12.30;99.90;;;;;;5053546;28;20011;-73
2023/05/07 02:41:02;;;;;;;;;;;12.30;99.90;;;;;;5053308;28;19967;-74
2023/05/07 02:43:28;;;;;;;;;;;12.30;99.90;;;;;;5051494;28;19921;-74
2023/05/07 02:46:00;;;;;;;;;;;12.30;99.90;;;;;;5052231;28;20035;-74
2023/05/07 02:48:25;;;;;;;;;;;12.30;99.90;;;;;;5053022;28;19925;-73
2023/05/07 02:50:51;;;;;;;;;;;12.30;99.90;;;;;;5052021;28;20418;-74
2023/05/07 02:53:16;;;;;;;;;;;12.30;99.90;;;;;;5053462;28;19929;-73
2023/05/07 02:55:42;;;;;;;;;;;12.20;99.90;;;;;;5052627;28;19932;-73
2023/05/07 02:58:07;;;;;;;;;;;12.20;99.90;;;;;;5052640;28;20371;-73
2023/05/07 03:00:33;;;;;;;;;;;12.30;99.90;;;;;;5053732;28;19924;-74
2023/05/07 03:02:58;;;;;;;;;;;12.10;99.90;;;;;;5050623;28;19981;-74
2023/05/07 03:05:24;;;;;;;;;;;12.20;99.90;;;;;;5052140;28;19924;-74
2023/05/07 03:07:49;;;;;;;;;;;12.10;99.90;;;;;;5052322;28;19924;-74
2023/05/07 03:10:15;;;;;;;;;;;12.10;99.90;;;;;;5051881;28;20292;-74
2023/05/07 03:12:41;;;;;;;;;;;12.10;99.90;;;;;;5052964;28;20405;-74
2023/05/07 03:15:06;;;;;;;;;;;12.10;99.90;;;;;;5051646;28;19925;-74
2023/05/07 03:17:32;;;;;;;;;;;12.10;99.90;;;;;;5052794;28;20372;-74
2023/05/07 03:19:58;;;;;;;;;;;12.00;99.90;;;;;;5052782;28;20325;-75
2023/05/07 03:22:23;;;;;;;;;;;12.00;99.90;;;;;;5051642;28;20004;-74
2023/05/07 03:24:49;;;;;;;;;;;12.00;99.90;;;;;;5051477;28;20411;-75
2023/05/07 03:27:14;;;;;;;;;;;12.80;99.90;;;;;;5052882;28;19925;-74
2023/05/07 03:29:40;;;;;;;;;;;12.00;99.90;;;;;;5052669;28;19925;-74
2023/05/07 03:32:05;;;;;;;;;;;12.00;99.90;;;;;;5051068;28;20011;-74
2023/05/07 03:34:31;;;;;;;;;;;11.90;99.90;;;;;;5052925;28;19927;-74
2023/05/07 03:36:56;;;;;;;;;;;11.80;99.90;;;;;;5052131;28;19925;-74
2023/05/07 03:39:22;;;;;;;;;;;11.90;99.90;;;;;;5052097;28;19929;-74
2023/05/07 03:41:48;;;;;;;;;;;12.10;99.90;;;;;;5052760;28;19925;-75
2023/05/07 03:44:13;;;;;;;;;;;11.90;99.90;;;;;;5052373;28;19928;-74
2023/05/07 03:46:39;;;;;;;;;;;11.90;99.90;;;;;;5052439;28;19955;-74
2023/05/07 03:49:04;;;;;;;;;;;11.80;99.90;;;;;;5051339;28;19947;-74
2023/05/07 03:51:30;;;;;;;;;;;11.80;99.90;;;;;;5055263;28;19972;-74
2023/05/07 03:53:57;;;;;;;;;;;11.80;99.90;;;;;;5055867;28;20015;-74
2023/05/07 03:56:22;;;;;;;;;;;11.90;99.90;;;;;;5054967;28;19932;-74
2023/05/07 03:58:48;;;;;;;;;;;11.80;99.90;;;;;;5054897;28;19929;-74
2023/05/07 04:01:13;;;;;;;;;;;11.80;99.90;;;;;;5055971;28;19930;-74
2023/05/07 04:03:39;;;;;;;;;;;12.70;99.90;;;;;;5056202;28;19959;-75
2023/05/07 04:06:05;;;;;;;;;;;11.70;99.90;;;;;;5055774;28;19932;-74
2023/05/07 04:08:31;;;;;;;;;;;11.70;99.90;;;;;;5055137;28;20019;-75
2023/05/07 04:10:57;;;;;;;;;;;11.70;99.90;;;;;;5054934;28;20016;-74
2023/05/07 04:13:22;;;;;;;;;;;11.70;99.90;;;;;;5055845;28;19921;-74
2023/05/07 04:15:48;;;;;;;;;;;11.60;99.90;;;;;;5055978;28;20022;-74
2023/05/07 04:18:14;;;;;;;;;;;11.60;99.90;;;;;;5054679;28;19970;-74
2023/05/07 04:20:40;;;;;;;;;;;11.50;99.90;;;;;;5055702;28;19924;-75
2023/05/07 04:23:05;;;;;;;;;;;11.50;99.90;;;;;;5054576;28;20261;-75
2023/05/07 04:25:31;;;;;;;;;;;11.80;99.90;;;;;;5055806;28;19921;-75
2023/05/07 04:27:56;;;;;;;;;;;11.60;99.90;;;;;;5054370;28;19925;-75
2023/05/07 04:30:22;;;;;;;;;;;11.60;99.90;;;;;;5054730;28;20008;-75
2023/05/07 04:32:48;;;;;;;;;;;11.60;99.90;;;;;;5054616;28;20420;-75
2023/05/07 04:35:14;;;;;;;;;;;11.50;99.90;;;;;;5054272;28;19925;-75
2023/05/07 04:37:39;;;;;;;;;;;11.50;99.90;;;;;;5054626;28;20396;-75
2023/05/07 04:40:05;;;;;;;;;;;11.50;99.90;;;;;;5053469;28;19924;-75
2023/05/07 04:42:31;;;;;;;;;;;11.50;99.90;;;;;;5055685;28;19929;-75
2023/05/07 04:44:56;;;;;;;;;;;11.50;99.90;;;;;;5054087;28;20389;-75
2023/05/07 04:47:22;;;;;;;;;;;11.60;99.90;;;;;;5054312;28;19967;-75
2023/05/07 04:49:48;;;;;;;;;;;11.50;99.90;;;;;;5053819;28;20284;-75
2023/05/07 04:52:13;;;;;;;;;;;11.50;99.90;;;;;;5054587;28;19932;-75
2023/05/07 04:54:39;;;;;;;;;;;11.50;99.90;;;;;;5055621;28;20011;-75
2023/05/07 04:57:04;;;;;;;;;;;11.50;99.90;;;;;;5053511;28;20392;-75
2023/05/07 04:59:30;;;;;;;;;;;11.60;99.90;;;;;;5054888;28;20030;-75
2023/05/07 05:01:55;;;;;;;;;;;11.50;99.90;;;;;;5054242;28;19925;-75
2023/05/07 05:04:21;;;;;;;;;;;11.60;99.90;;;;;;5055652;28;19925;-75
2023/05/07 05:06:49;;;;;;;;;;;11.50;99.90;;;;;;5054179;28;19976;-75
2023/05/07 05:09:15;;;;;;;;;;;11.50;99.90;;;;;;5054043;28;19975;-75
2023/05/07 05:11:41;;;;;;;;;;;11.50;99.90;;;;;;5055625;28;19931;-75
2023/05/07 05:14:07;;;;;;;;;;;11.70;99.90;;;;;;5053270;28;19925;-75
2023/05/07 05:16:32;;;;;;;;;;;11.50;99.90;;;;;;5053190;28;20261;-75
2023/05/07 05:18:58;;;;;;;;;;;11.50;99.90;;;;;;5053612;28;20483;-75
2023/05/07 05:21:23;;;;;;;;;;;11.50;99.90;;;;;;5054797;28;19929;-75
2023/05/07 05:23:49;;;;;;;;;;;11.50;99.90;;;;;;5054421;28;19925;-75
2023/05/07 05:26:15;;;;;;;;;;;11.50;99.90;;;;;;5053010;28;19925;-74
2023/05/07 05:28:40;;;;;;;;;;;11.50;99.90;;;;;;5053882;28;20027;-75
2023/05/07 05:31:06;;;;;;;;;;;11.50;99.90;;;;;;5053854;28;20376;-74
2023/05/07 05:33:31;;;;;;;;;;;11.40;99.90;;;;;;5054679;28;19925;-75
2023/05/07 05:35:57;;;;;;;;;;;11.50;99.90;;;;;;5054088;28;20353;-75
2023/05/07 05:38:22;;;;;;;;;;;11.50;99.90;;;;;;5054137;28;19968;-75
2023/05/07 05:40:48;;;;;;;;;;;11.50;99.90;;;;;;5053361;28;19933;-74
2023/05/07 05:43:13;;;;;;;;;;;11.70;99.90;;;;;;5054374;28;19921;-74
2023/05/07 05:45:39;;;;;;;;;;;11.40;99.90;;;;;;5053176;28;19978;-74
2023/05/07 05:48:05;;;;;;;;;;;11.60;99.90;;;;;;5054493;28;19931;-74
2023/05/07 05:50:31;;;;;;;;;;;11.50;99.90;;;;;;5052532;28;20419;-74
2023/05/07 05:52:57;;;;;;;;;;;11.60;99.90;;;;;;5052106;28;19937;-75
2023/05/07 05:55:23;;;;;;;;;;;11.60;99.90;;;;;;5054181;28;19987;-75
2023/05/07 05:57:49;;;;;;;;;;;11.60;99.90;;;;;;5053114;28;20309;-76
2023/05/07 06:00:16;;;;;;;;;;;11.90;99.90;;;;;;5050301;28;19924;-75
2023/05/07 06:02:42;;;;;;;;;;;11.60;99.90;;;;;;5051764;28;19928;-75
2023/05/07 06:05:08;;;;;;;;;;;11.60;99.90;;;;;;5052358;28;19932;-75
2023/05/07 06:07:34;;;;;;;;;;;11.60;99.90;;;;;;5052278;28;19924;-74
2023/05/07 06:10:00;;;;;;;;;;;11.70;99.90;;;;;;5050895;28;19966;-75
2023/05/07 06:12:25;;;;;;;;;;;11.60;99.90;;;;;;5048159;28;19968;-75
2023/05/07 06:14:51;;;;;;;;;;;11.70;99.90;;;;;;5053098;28;19932;-75
2023/05/07 06:17:16;;;;;;;;;;;11.70;99.90;;;;;;5052424;28;20436;-76
2023/05/07 06:19:42;;;;;;;;;;;11.80;99.90;;;;;;5051992;28;20411;-75
2023/05/07 06:22:07;;;;;;;;;;;11.80;99.90;;;;;;5052269;28;19932;-75
2023/05/07 06:24:33;;;;;;;;;;;12.50;99.90;;;;;;5052472;28;19925;-75
2023/05/07 06:26:58;;;;;;;;;;;11.90;99.90;;;;;;5053072;28;19929;-75
2023/05/07 06:29:25;;;;;;;;;;;12.00;99.90;;;;;;5053746;28;20388;-75
2023/05/07 06:31:54;;;;;;;;;;;12.00;99.90;;;;;;5053536;28;19931;-75
2023/05/07 06:34:19;;;;;;;;;;;12.10;99.90;;;;;;5051544;28;19935;-75
2023/05/07 06:36:45;;;;;;;;;;;12.10;99.90;;;;;;5051858;28;19925;-75
2023/05/07 06:39:10;;;;;;;;;;;12.10;99.90;;;;;;5052858;28;20364;-75
2023/05/07 06:41:36;;;;;;;;;;;12.10;99.90;;;;;;5053258;28;20276;-75
2023/05/07 06:44:02;;;;;;;;;;;12.10;99.90;;;;;;5053546;28;19924;-76
2023/05/07 06:46:28;;;;;;;;;;;12.20;99.90;;;;;;5053286;28;19929;-75
2023/05/07 06:48:54;;;;;;;;;;;12.30;99.90;;;;;;5052906;28;19921;-75
2023/05/07 06:51:19;;;;;;;;;;;12.40;99.90;;;;;;5052233;28;19935;-76
2023/05/07 06:53:45;;;;;;;;;;;12.50;99.90;;;;;;5053252;28;20331;-76
2023/05/07 06:56:10;;;;;;;;;;;12.50;99.90;;;;;;5052670;28;19982;-75
2023/05/07 06:58:36;;;;;;;;;;;12.50;99.90;;;;;;5053765;28;20369;-76
2023/05/07 07:01:02;;;;;;;;;;;12.50;99.90;;;;;;5051948;28;19978;-76
2023/05/07 07:03:27;;;;;;;;;;;12.50;99.90;;;;;;5052079;28;19925;-75
2023/05/07 07:05:53;;;;;;;;;;;12.50;99.90;;;;;;5051988;28;19975;-75
2023/05/07 07:08:21;;;;;;;;;;;12.50;99.90;;;;;;5052813;28;19935;-75
2023/05/07 07:10:46;;;;;;;;;;;12.70;99.90;;;;;;5052672;28;19925;-75
2023/05/07 07:13:12;;;;;;;;;;;12.50;99.90;;;;;;5050878;28;20288;-75
2023/05/07 07:15:37;;;;;;;;;;;12.60;99.90;;;;;;5052021;28;19924;-76
2023/05/07 09:04:10;;;;;;;;;;;19.10;99.90;;;;;;5057959;28;19928;-79
2023/05/07 09:06:41;;;;;;;;;;;19.50;99.90;;;;;;5055566;28;19932;-83
2023/05/07 09:09:07;;;;;;;;;;;19.40;99.90;;;;;;5054138;28;19920;-80
2023/05/07 09:11:32;;;;;;;;;;;19.60;99.90;;;;;;5054239;28;19940;-75
2023/05/07 09:14:02;;;;;;;;;;;19.80;99.90;;;;;;5054100;28;20026;-78
2023/05/07 09:16:31;;;;;;;;;;;20.20;99.90;;;;;;5054336;28;19953;-79
2023/05/07 09:19:00;;;;;;;;;;;20.10;99.90;;;;;;5053329;28;19925;-79
2023/05/07 09:21:26;;;;;;;;;;;19.70;99.90;;;;;;5054210;28;20402;-77
2023/05/07 09:23:54;;;;;;;;;;;19.50;99.90;;;;;;5055301;28;19925;-85
2023/05/07 09:26:23;;;;;;;;;;;19.90;99.90;;;;;;5054812;28;19928;-84
2023/05/07 09:28:49;;;;;;;;;;;20.20;99.90;;;;;;5061806;28;19951;-84
2023/05/07 09:31:15;;;;;;;;;;;20.40;99.90;;;;;;5064009;28;20371;-84
2023/05/07 09:33:40;;;;;;;;;;;20.90;99.90;;;;;;5074070;28;19934;-83
2023/05/07 09:36:07;;;;;;;;;;;20.80;99.90;;;;;;5073188;28;19925;-84
2023/05/07 09:38:33;;;;;;;;;;;20.60;99.90;;;;;;5068783;28;19928;-84
2023/05/07 09:41:05;;;;;;;;;;;20.30;99.90;;;;;;5066879;28;19925;-84
2023/05/07 09:43:40;;;;;;;;;;;20.50;99.90;;;;;;5073829;28;20325;-84
2023/05/07 09:46:07;;;;;;;;;;;20.80;99.90;;;;;;5073041;28;20422;-84
2023/05/07 09:48:36;;;;;;;;;;;21.00;99.90;;;;;;5069980;28;20058;-84
2023/05/07 09:51:04;;;;;;;;;;;20.70;99.90;;;;;;5065523;28;19964;-84
2023/05/07 09:53:30;;;;;;;;;;;20.40;99.90;;;;;;5064808;28;19928;-85
2023/05/07 09:55:59;;;;;;;;;;;20.70;99.90;;;;;;5055292;28;20443;-85
2023/05/07 09:58:25;;;;;;;;;;;20.40;99.90;;;;;;5054957;28;19924;-82
2023/05/07 10:00:51;;;;;;;;;;;20.60;99.90;;;;;;5052902;28;19925;-82
2023/05/07 10:03:18;;;;;;;;;;;21.10;99.90;;;;;;5061998;28;19924;-84
2023/05/07 10:05:46;;;;;;;;;;;20.90;99.90;;;;;;5063630;28;19925;-83
2023/05/07 10:08:11;;;;;;;;;;;20.90;99.90;;;;;;5063873;28;19925;-83
2023/05/07 10:10:37;;;;;;;;;;;20.50;99.90;;;;;;5064790;28;19932;-84
2023/05/07 10:13:05;;;;;;;;;;;20.00;99.90;;;;;;5062983;28;19925;-84
2023/05/07 10:15:34;;;;;;;;;;;20.20;99.90;;;;;;5054338;28;19925;-84
2023/05/07 10:18:02;;;;;;;;;;;19.70;99.90;;;;;;5053384;28;19935;-84
2023/05/07 10:20:28;;;;;;;;;;;20.20;99.90;;;;;;5053511;28;20299;-84
2023/05/07 10:22:55;;;;;;;;;;;20.40;99.90;;;;;;5063359;28;19925;-84
2023/05/07 10:25:25;;;;;;;;;;;20.50;99.90;;;;;;5073508;28;19924;-83
2023/05/07 10:27:52;;;;;;;;;;;20.80;99.90;;;;;;5074457;28;20291;-84
2023/05/07 10:30:21;;;;;;;;;;;20.60;99.90;;;;;;5074244;28;19983;-83
2023/05/07 10:32:47;;;;;;;;;;;20.90;99.90;;;;;;5075322;28;20015;-83
2023/05/07 10:35:25;;;;;;;;;;;21.30;99.90;;;;;;5062739;28;19925;-84
2023/05/07 10:37:51;;;;;;;;;;;21.60;99.90;;;;;;5055088;28;19925;-84
2023/05/07 10:40:19;;;;;;;;;;;21.30;99.90;;;;;;5054906;28;19925;-83
2023/05/07 10:42:55;;;;;;;;;;;21.90;99.90;;;;;;5053675;28;20368;-83
2023/05/07 10:45:21;;;;;;;;;;;22.10;99.90;;;;;;5052590;28;19924;-84
2023/05/07 10:48:05;;;;;;;;;;;22.00;99.90;;;;;;5052731;28;20348;-84
2023/05/07 10:50:41;;;;;;;;;;;22.00;99.90;;;;;;5052248;28;19925;-84
2023/05/07 10:53:18;;;;;;;;;;;22.20;99.90;;;;;;5053614;28;19925;-85
2023/05/07 10:55:46;;;;;;;;;;;22.00;99.90;;;;;;5064638;28;19925;-84
2023/05/07 10:58:20;;;;;;;;;;;22.40;99.90;;;;;;5100736;22;19974;-84
2023/05/07 11:00:46;;;;;;;;;;;22.20;99.90;;;;;;5093854;28;19974;-84
2023/05/07 11:03:12;;;;;;;;;;;22.30;99.90;;;;;;5092018;28;19968;-84
2023/05/07 11:05:38;;;;;;;;;;;22.10;99.90;;;;;;5093490;28;19928;-84
2023/05/07 11:08:04;;;;;;;;;;;21.90;99.90;;;;;;5093159;28;19932;-84
2023/05/07 11:10:48;;;;;;;;;;;22.10;99.90;;;;;;5093173;28;19974;-84
2023/05/07 11:13:14;;;;;;;;;;;21.80;99.90;;;;;;5093607;28;19924;-83
2023/05/07 11:15:42;;;;;;;;;;;21.90;99.90;;;;;;5092195;28;19931;-84
2023/05/07 11:18:08;;;;;;;;;;;21.70;99.90;;;;;;5091137;28;19973;-84
2023/05/07 11:20:43;;;;;;;;;;;21.90;99.90;;;;;;5093851;28;20007;-84
2023/05/07 11:23:29;;;;;;;;;;;22.10;99.90;;;;;;5093277;28;19924;-85
2023/05/07 11:26:02;;;;;;;;;;;22.40;99.90;;;;;;5090512;28;19925;-83
2023/05/07 11:28:28;;;;;;;;;;;22.20;99.90;;;;;;5092446;28;19924;-82
2023/05/07 11:30:54;;;;;;;;;;;21.90;99.90;;;;;;5093547;28;19931;-83
2023/05/07 11:33:19;;;;;;;;;;;21.90;99.90;;;;;;5092472;28;20285;-83
2023/05/07 11:35:45;;;;;;;;;;;22.10;99.90;;;;;;5092352;28;19975;-83
2023/05/07 11:38:12;;;;;;;;;;;22.30;99.90;;;;;;5091672;28;19928;-84
2023/05/07 11:40:50;;;;;;;;;;;22.20;99.90;;;;;;5092036;28;19924;-84
2023/05/07 11:43:16;;;;;;;;;;;22.20;99.90;;;;;;5092931;28;20413;-77
2023/05/07 11:45:41;;;;;;;;;;;22.10;99.90;;;;;;5092209;28;19924;-77
2023/05/07 11:48:07;;;;;;;;;;;22.20;99.90;;;;;;5093111;28;20365;-79
2023/05/07 11:50:32;;;;;;;;;;;22.60;99.90;;;;;;5093320;28;20275;-79
2023/05/07 11:52:58;;;;;;;;;;;23.10;99.90;;;;;;5092048;28;20756;-79
2023/05/07 11:55:24;;;;;;;;;;;23.30;99.90;;;;;;5091430;28;20448;-79
2023/05/07 11:57:50;;;;;;;;;;;23.40;99.90;;;;;;5091214;28;20379;-78
2023/05/07 12:00:16;;;;;;;;;;;23.30;99.90;;;;;;5091563;28;19924;-79
2023/05/07 12:02:42;;;;;;;;;;;23.20;99.90;;;;;;5091979;28;20421;-79
2023/05/07 12:05:08;;;;;;;;;;;23.00;99.90;;;;;;5092510;28;20430;-78
2023/05/07 12:07:33;;;;;;;;;;;22.80;99.90;;;;;;5092446;28;20007;-78
2023/05/07 12:09:59;;;;;;;;;;;23.00;99.90;;;;;;5091701;28;19927;-78
2023/05/07 12:12:26;;;;;;;;;;;23.00;99.90;;;;;;5094970;28;19924;-79
2023/05/07 12:14:52;;;;;;;;;;;22.90;99.90;;;;;;5095760;28;19978;-79
2023/05/07 12:17:17;;;;;;;;;;;23.00;99.90;;;;;;5095299;28;19928;-79
2023/05/07 12:19:44;;;;;;;;;;;22.80;99.90;;;;;;5096972;28;20386;-79
2023/05/07 12:22:10;;;;;;;;;;;22.50;99.90;;;;;;5095983;28;19924;-79
2023/05/07 12:24:49;;;;;;;;;;;22.90;99.90;;;;;;5096603;28;19924;-79
2023/05/07 12:27:14;;;;;;;;;;;23.40;99.90;;;;;;5095470;28;19924;-80
2023/05/07 12:29:45;;;;;;;;;;;23.50;99.90;;;;;;5096059;28;19986;-79
2023/05/07 12:32:18;;;;;;;;;;;23.70;99.90;;;;;;5096016;28;19935;-79
2023/05/07 12:34:44;;;;;;;;;;;23.60;99.90;;;;;;5095221;28;19970;-79
2023/05/07 12:37:10;;;;;;;;;;;23.40;99.90;;;;;;5095640;28;20302;-78
2023/05/07 12:39:35;;;;;;;;;;;23.40;99.90;;;;;;5095219;28;19977;-79
2023/05/07 12:42:01;;;;;;;;;;;23.00;99.90;;;;;;5093639;28;20013;-79
2023/05/07 12:44:30;;;;;;;;;;;23.10;99.90;;;;;;5096806;28;19993;-78
2023/05/07 12:46:56;;;;;;;;;;;23.10;99.90;;;;;;5096113;28;19928;-79
2023/05/07 12:49:22;;;;;;;;;;;23.00;99.90;;;;;;5094404;28;20014;-79
2023/05/07 12:51:48;;;;;;;;;;;23.00;99.90;;;;;;5094281;28;19960;-79
2023/05/07 12:54:27;;;;;;;;;;;22.90;99.90;;;;;;5096167;28;20325;-80
2023/05/07 12:57:00;;;;;;;;;;;22.90;99.90;;;;;;5094938;28;19932;-78
2023/05/07 12:59:32;;;;;;;;;;;22.90;99.90;;;;;;5094695;28;19993;-77
2023/05/07 13:01:57;;;;;;;;;;;22.90;99.90;;;;;;5094659;28;20002;-77
2023/05/07 13:04:24;;;;;;;;;;;22.90;99.90;;;;;;5094371;28;20361;-78
2023/05/07 13:06:50;;;;;;;;;;;22.90;99.90;;;;;;5093141;28;20007;-78
2023/05/07 13:09:15;;;;;;;;;;;23.10;99.90;;;;;;5095025;28;20019;-78
2023/05/07 13:11:41;;;;;;;;;;;23.30;99.90;;;;;;5094006;28;20302;-77
2023/05/07 13:14:06;;;;;;;;;;;23.40;99.90;;;;;;5094734;28;20282;-77
2023/05/07 13:16:34;;;;;;;;;;;23.40;99.90;;;;;;5093881;28;20401;-77
2023/05/07 13:19:00;;;;;;;;;;;23.30;99.90;;;;;;5091954;28;19968;-79
2023/05/07 13:21:26;;;;;;;;;;;23.30;99.90;;;;;;5088544;28;19960;-79
2023/05/07 13:23:52;;;;;;;;;;;23.30;99.90;;;;;;5076088;28;19931;-78
2023/05/07 13:26:18;;;;;;;;;;;23.50;99.90;;;;;;5079656;28;19920;-79
2023/05/07 13:28:43;;;;;;;;;;;23.20;99.90;;;;;;5084875;28;19978;-79
2023/05/07 13:31:09;;;;;;;;;;;23.20;99.90;;;;;;5072033;28;20371;-79
2023/05/07 13:33:35;;;;;;;;;;;23.30;99.90;;;;;;5089512;28;19924;-79
2023/05/07 13:36:03;;;;;;;;;;;23.50;99.90;;;;;;5092491;28;19924;-82
2023/05/07 13:38:29;;;;;;;;;;;23.40;99.90;;;;;;5092453;28;19983;-83
2023/05/07 13:40:54;;;;;;;;;;;23.20;99.90;;;;;;5093098;28;19990;-82
2023/05/07 13:43:20;;;;;;;;;;;23.20;99.90;;;;;;5092611;28;20380;-82
2023/05/07 13:45:45;;;;;;;;;;;23.40;99.90;;;;;;5072219;28;20287;-83
2023/05/07 13:48:11;;;;;;;;;;;23.60;99.90;;;;;;5079477;28;19934;-83
2023/05/07 13:50:36;;;;;;;;;;;23.80;99.90;;;;;;5093164;28;19928;-81
2023/05/07 13:53:02;;;;;;;;;;;23.80;99.50;;;;;;5091797;28;20378;-76
2023/05/07 13:55:28;;;;;;;;;;;23.90;99.90;;;;;;5094429;28;19983;-76
2023/05/07 13:57:58;;;;;;;;;;;23.90;99.90;;;;;;5029527;28;1787520;-75
2023/05/07 14:00:24;;;;;;;;;;;23.80;99.90;;;;;;5092830;28;19968;-75
2023/05/07 14:02:50;;;;;;;;;;;23.50;99.90;;;;;;5092055;28;20015;-77
2023/05/07 14:05:16;;;;;;;;;;;23.40;99.90;;;;;;5093411;28;19970;-77
2023/05/07 14:07:41;;;;;;;;;;;23.10;99.90;;;;;;5092013;28;20015;-76
2023/05/07 14:10:10;;;;;;;;;;;22.80;99.90;;;;;;5092643;28;20342;-76
2023/05/07 14:12:39;;;;;;;;;;;22.70;99.90;;;;;;5094352;28;19970;-76
2023/05/07 14:15:04;;;;;;;;;;;23.00;99.90;;;;;;5096533;28;19932;-75
2023/05/07 14:17:30;;;;;;;;;;;23.30;99.90;;;;;;5097223;28;19924;-76
2023/05/07 14:19:57;;;;;;;;;;;23.50;99.90;;;;;;5096479;28;20323;-76
2023/05/07 14:22:22;;;;;;;;;;;23.50;99.90;;;;;;5098086;28;19996;-76
2023/05/07 14:24:48;;;;;;;;;;;23.30;99.90;;;;;;5101742;28;19956;-76
2023/05/07 14:27:14;;;;;;;;;;;22.90;99.90;;;;;;5104804;28;19924;-76
2023/05/07 14:29:40;;;;;;;;;;;22.80;99.90;;;;;;5099243;28;19970;-76
2023/05/07 14:32:06;;;;;;;;;;;22.90;99.90;;;;;;5093188;28;19930;-76
2023/05/07 14:34:31;;;;;;;;;;;22.70;99.90;;;;;;5091345;28;19932;-77
2023/05/07 14:36:57;;;;;;;;;;;22.60;99.90;;;;;;5092632;28;19928;-76
2023/05/07 14:39:23;;;;;;;;;;;22.40;99.90;;;;;;5094590;28;20390;-76
2023/05/07 14:41:48;;;;;;;;;;;22.20;99.90;;;;;;5093581;28;19924;-76
2023/05/07 14:44:14;;;;;;;;;;;22.20;99.90;;;;;;5092515;28;19977;-76
2023/05/07 14:46:40;;;;;;;;;;;22.00;99.90;;;;;;5093018;28;19924;-76
2023/05/07 14:49:06;;;;;;;;;;;21.80;99.90;;;;;;5092089;28;19928;-76
2023/05/07 14:51:32;;;;;;;;;;;21.80;99.90;;;;;;5093014;28;19935;-76
2023/05/07 14:53:58;;;;;;;;;;;21.60;99.90;;;;;;5092800;28;19978;-75
2023/05/07 14:56:24;;;;;;;;;;;21.80;99.90;;;;;;5094189;28;19968;-78
2023/05/07 14:58:49;;;;;;;;;;;21.50;99.90;;;;;;5089848;28;19984;-75
2023/05/07 15:01:15;;;;;;;;;;;21.60;99.90;;;;;;5075515;28;20005;-76
2023/05/07 15:03:40;;;;;;;;;;;21.60;99.90;;;;;;5097827;28;19928;-77
2023/05/07 15:06:06;;;;;;;;;;;21.80;99.90;;;;;;5103502;28;19924;-77
2023/05/07 15:08:31;;;;;;;;;;;21.60;99.90;;;;;;5096722;28;20599;-76
2023/05/07 15:10:57;;;;;;;;;;;21.50;99.90;;;;;;5095113;28;19924;-76
2023/05/07 15:13:22;;;;;;;;;;;21.60;99.90;;;;;;5096978;28;19924;-76
2023/05/07 15:15:49;;;;;;;;;;;21.60;99.90;;;;;;5096772;28;19931;-76
2023/05/07 15:18:15;;;;;;;;;;;21.70;99.90;;;;;;5094888;28;19979;-78
2023/05/07 15:20:41;;;;;;;;;;;21.70;99.90;;;;;;5095552;28;19927;-79
2023/05/07 15:23:11;;;;;;;;;;;21.70;99.90;;;;;;5078948;28;19924;-78
2023/05/07 15:25:37;;;;;;;;;;;21.60;99.90;;;;;;5071626;28;20373;-78
2023/05/07 15:28:09;;;;;;;;;;;21.60;99.90;;;;;;5080129;28;19950;-78
2023/05/07 15:30:37;;;;;;;;;;;21.60;99.90;;;;;;5092995;28;19928;-76
2023/05/07 15:33:03;;;;;;;;;;;21.50;99.90;;;;;;5085907;28;19935;-77
2023/05/07 15:35:28;;;;;;;;;;;21.50;99.90;;;;;;5091898;28;19924;-77
2023/05/07 15:37:55;;;;;;;;;;;21.50;99.90;;;;;;5084237;28;19993;-77
2023/05/07 15:40:21;;;;;;;;;;;21.30;99.90;;;;;;5092929;28;19967;-78
2023/05/07 15:42:46;;;;;;;;;;;21.20;99.90;;;;;;5091571;28;19925;-78
2023/05/07 15:45:12;;;;;;;;;;;20.90;99.90;;;;;;5091439;28;19924;-76
2023/05/07 15:47:37;;;;;;;;;;;20.90;99.90;;;;;;5092320;28;19928;-77
2023/05/07 15:50:03;;;;;;;;;;;20.80;99.90;;;;;;5091668;28;19928;-78
2023/05/07 15:52:29;;;;;;;;;;;20.80;99.90;;;;;;5091316;28;19924;-78
2023/05/07 15:54:58;;;;;;;;;;;20.80;99.90;;;;;;5070644;28;19924;-76
2023/05/07 15:57:24;;;;;;;;;;;20.70;99.90;;;;;;5087690;28;19931;-76